Time;durP1;ratioP1;P1;durP2;ratioP2;P2;SDS_P1;SDS_P2;PMS_P1;PMS_P2;Temp;Humidity;BMP_temperature;BMP_pressure;BME280_temperature;BME280_humidity;BME280_pressure;Samples;Min_cycle;Max_cycle;Signal;HPM_P1;HPM_P2
2021/12/21 00:00:20;;;;;;;21.23;10.27;;;-1.50;99.90;;;;;;4995643;28;20049;-85
2021/12/21 00:02:59;;;;;;;21.08;9.75;;;-1.50;99.90;;;;;;4995498;28;20122;-85
2021/12/21 00:05:28;;;;;;;19.67;9.95;;;-1.60;99.90;;;;;;4995579;28;20100;-85
2021/12/21 00:08:10;;;;;;;18.13;9.80;;;-1.60;99.90;;;;;;4995534;28;20478;-85
2021/12/21 00:10:36;;;;;;;27.38;11.15;;;-1.60;99.90;;;;;;4995504;28;20033;-85
2021/12/21 00:13:35;;;;;;;23.90;11.30;;;-1.60;99.90;;;;;;4995410;28;20386;-85
2021/12/21 00:16:30;;;;;;;26.30;13.00;;;-1.60;99.90;;;;;;4995422;28;20029;-85
2021/12/21 00:21:34;;;;;;;30.75;11.90;;;-1.60;99.90;;;;;;4995169;28;20033;-85
2021/12/21 00:26:51;;;;;;;31.10;13.10;;;-1.60;99.90;;;;;;4995075;28;20081;-85
2021/12/21 00:29:20;;;;;;;25.00;13.55;;;-1.50;99.90;;;;;;4995103;28;20030;-85
2021/12/21 00:31:47;;;;;;;35.55;13.90;;;-1.50;99.90;;;;;;4994984;28;20113;-85
2021/12/21 00:34:22;;;;;;;25.05;12.77;;;-1.50;99.90;;;;;;4994929;28;20535;-85
2021/12/21 00:36:48;;;;;;;29.38;13.20;;;-1.40;99.90;;;;;;4994762;28;20885;-85
2021/12/21 00:39:16;;;;;;;34.15;14.68;;;-1.30;99.90;;;;;;4994955;28;20061;-85
2021/12/21 00:41:41;;;;;;;40.83;15.88;;;-1.30;99.90;;;;;;4993549;28;20460;-85
2021/12/21 00:44:09;;;;;;;40.40;15.63;;;-1.30;99.90;;;;;;4993743;28;20129;-85
2021/12/21 00:46:35;;;;;;;27.75;15.77;;;-1.20;99.90;;;;;;4994793;28;20065;-85
2021/12/21 00:49:15;;;;;;;39.53;16.55;;;-1.20;99.90;;;;;;4994779;28;20488;-85
2021/12/21 00:51:44;;;;;;;29.75;13.00;;;-1.20;99.90;;;;;;4994114;28;20049;-85
2021/12/21 00:54:44;;;;;;;35.40;14.77;;;-1.10;99.90;;;;;;4994507;28;20021;-85
2021/12/21 00:57:09;;;;;;;38.22;14.77;;;-1.10;99.90;;;;;;4994516;28;20026;-85
2021/12/21 00:59:36;;;;;;;33.40;14.70;;;-1.00;99.90;;;;;;4994730;28;20102;-85
2021/12/21 01:02:02;;;;;;;34.55;14.45;;;-1.00;99.90;;;;;;4994516;28;20178;-85
2021/12/21 01:04:34;;;;;;;31.52;14.52;;;-1.00;99.90;;;;;;4993193;28;20133;-85
2021/12/21 01:13:15;;;;;;;41.50;15.23;;;-0.80;99.90;;;;;;4982388;28;20084;-85
2021/12/21 01:18:35;;;;;;;36.42;13.90;;;-0.80;99.90;;;;;;4994212;28;20127;-86
2021/12/21 01:21:18;;;;;;;36.53;14.10;;;-0.70;99.90;;;;;;4994099;28;20037;-85
2021/12/21 01:36:59;;;;;;;25.30;11.65;;;-0.60;99.90;;;;;;4993658;28;20030;-85
2021/12/21 01:39:53;;;;;;;40.05;13.65;;;-0.50;99.90;;;;;;4993666;28;20030;-85
2021/12/21 01:42:27;;;;;;;37.28;14.70;;;-0.50;99.90;;;;;;4993216;28;20034;-85
2021/12/21 01:50:24;;;;;;;25.17;11.25;;;-0.60;99.90;;;;;;4993465;28;20072;-85
2021/12/21 01:52:55;;;;;;;28.10;11.38;;;-0.50;99.90;;;;;;4993546;28;20018;-85
2021/12/21 01:55:21;;;;;;;30.10;12.95;;;-0.50;99.90;;;;;;4992474;28;20026;-85
2021/12/21 01:58:00;;;;;;;28.88;11.32;;;-0.50;99.90;;;;;;4993552;28;20378;-85
2021/12/21 02:00:27;;;;;;;23.45;10.63;;;-0.50;99.90;;;;;;4993500;28;20483;-85
2021/12/21 02:03:07;;;;;;;22.05;11.85;;;-0.50;99.90;;;;;;4991568;28;20532;-85
2021/12/21 02:05:33;;;;;;;21.83;10.32;;;-0.40;99.90;;;;;;4993240;28;20105;-85
2021/12/21 02:08:00;;;;;;;20.40;11.05;;;-0.40;99.90;;;;;;4993362;28;20113;-85
2021/12/21 02:10:26;;;;;;;18.85;9.32;;;-0.40;99.90;;;;;;4992287;28;20478;-85
2021/12/21 02:13:09;;;;;;;25.98;9.45;;;-0.40;99.90;;;;;;4992001;28;20033;-85
2021/12/21 02:15:35;;;;;;;18.10;9.60;;;-0.40;99.90;;;;;;4992137;28;20026;-85
2021/12/21 02:23:41;;;;;;;24.80;10.55;;;-0.50;99.90;;;;;;4992247;28;20136;-85
2021/12/21 02:31:43;;;;;;;22.13;8.95;;;-0.70;99.90;;;;;;4993081;28;20045;-85
2021/12/21 02:34:21;;;;;;;22.00;9.38;;;-0.80;99.90;;;;;;4993202;28;20049;-85
2021/12/21 02:36:48;;;;;;;19.52;9.30;;;-0.90;99.90;;;;;;4993332;28;20122;-85
2021/12/21 02:39:17;;;;;;;14.60;8.75;;;-0.90;99.90;;;;;;4991853;28;20033;-85
2021/12/21 02:41:44;;;;;;;17.55;9.32;;;-1.00;99.90;;;;;;4993009;28;20396;-85
2021/12/21 02:44:16;;;;;;;18.80;9.43;;;-1.10;99.90;;;;;;4993059;28;20029;-84
2021/12/21 02:46:43;;;;;;;14.60;8.75;;;-1.20;99.90;;;;;;4991826;28;20096;-84
2021/12/21 02:49:16;;;;;;;19.40;8.50;;;-1.20;99.90;;;;;;4992913;28;20049;-85
2021/12/21 02:51:44;;;;;;;14.77;8.25;;;-1.30;99.90;;;;;;4991736;28;20026;-85
2021/12/21 02:54:14;;;;;;;18.25;9.15;;;-1.30;99.90;;;;;;4992928;28;20034;-85
2021/12/21 02:56:41;;;;;;;20.45;8.82;;;-1.30;99.90;;;;;;4993090;28;20018;-85
2021/12/21 02:59:16;;;;;;;16.50;9.13;;;-1.30;99.90;;;;;;4992966;28;20394;-85
2021/12/21 03:01:42;;;;;;;14.95;9.23;;;-1.40;99.90;;;;;;4992893;28;20026;-85
2021/12/21 03:04:09;;;;;;;14.00;8.07;;;-1.40;99.90;;;;;;4992977;28;20482;-85
2021/12/21 03:09:38;;;;;;;14.32;8.13;;;-1.40;99.90;;;;;;4992965;28;20030;-85
2021/12/21 03:12:28;;;;;;;20.65;9.00;;;-1.50;99.90;;;;;;4991593;28;20050;-85
2021/12/21 03:14:55;;;;;;;19.13;9.20;;;-1.50;99.90;;;;;;4992374;28;20490;-85
2021/12/21 03:17:26;;;;;;;16.95;8.25;;;-1.50;99.90;;;;;;4995242;28;20026;-85
2021/12/21 03:19:52;;;;;;;22.98;10.00;;;-1.60;99.90;;;;;;4994617;28;20080;-85
2021/12/21 03:22:17;;;;;;;21.42;9.48;;;-1.60;99.90;;;;;;4995593;28;20101;-85
2021/12/21 03:24:43;;;;;;;21.75;9.32;;;-1.70;99.90;;;;;;4996392;28;20471;-85
2021/12/21 03:27:15;;;;;;;20.23;8.80;;;-1.70;99.90;;;;;;4996270;28;20018;-85
2021/12/21 03:29:41;;;;;;;11.63;7.20;;;-1.70;99.90;;;;;;4996130;28;20030;-85
2021/12/21 03:32:08;;;;;;;15.25;7.60;;;-1.70;99.90;;;;;;4996235;28;20019;-85
2021/12/21 03:34:33;;;;;;;18.83;8.43;;;-1.70;99.90;;;;;;4995430;28;20471;-85
2021/12/21 03:37:11;;;;;;;16.88;7.47;;;-1.70;99.90;;;;;;4996192;28;20125;-85
2021/12/21 03:39:37;;;;;;;18.73;8.95;;;-1.70;99.90;;;;;;4996102;28;20026;-85
2021/12/21 03:42:05;;;;;;;16.35;7.25;;;-1.80;99.90;;;;;;4996001;28;20054;-85
2021/12/21 03:44:30;;;;;;;12.73;6.60;;;-1.80;99.90;;;;;;4996028;28;20041;-85
2021/12/21 03:47:09;;;;;;;16.73;7.68;;;-1.80;99.90;;;;;;4994668;28;20030;-85
2021/12/21 03:52:26;;;;;;;14.02;6.07;;;-1.80;99.90;;;;;;4996109;28;20025;-85
2021/12/21 03:54:55;;;;;;;15.35;6.38;;;-1.80;99.90;;;;;;4995833;28;20026;-85
2021/12/21 03:57:28;;;;;;;10.98;5.97;;;-1.90;99.90;;;;;;4995822;28;20026;-85
2021/12/21 03:59:55;;;;;;;12.68;5.82;;;-1.90;99.90;;;;;;4994488;28;20023;-85
2021/12/21 04:02:24;;;;;;;10.57;5.15;;;-1.90;99.90;;;;;;4995741;28;20019;-85
2021/12/21 04:04:50;;;;;;;10.05;5.05;;;-1.90;99.90;;;;;;4995404;28;20015;-85
2021/12/21 04:07:27;;;;;;;10.75;4.75;;;-1.90;99.90;;;;;;4995597;28;20373;-85
2021/12/21 04:09:53;;;;;;;10.93;4.75;;;-2.00;99.90;;;;;;4994195;28;20022;-85
2021/12/21 04:12:48;;;;;;;9.68;4.40;;;-2.00;99.90;;;;;;4995406;28;20034;-85
2021/12/21 04:15:16;;;;;;;11.23;4.00;;;-2.00;99.90;;;;;;4995489;28;20019;-85
2021/12/21 04:20:56;;;;;;;11.70;3.45;;;-2.10;99.90;;;;;;4994970;28;20027;-85
2021/12/21 04:23:21;;;;;;;6.18;3.00;;;-2.10;99.90;;;;;;4994322;28;20077;-85
2021/12/21 04:25:48;;;;;;;11.38;2.67;;;-2.10;99.90;;;;;;4994557;28;20030;-85
2021/12/21 04:28:13;;;;;;;6.65;2.38;;;-2.20;99.90;;;;;;4994794;28;20023;-85
2021/12/21 04:30:46;;;;;;;6.00;2.63;;;-2.10;99.90;;;;;;4994929;28;20429;-85
2021/12/21 04:33:11;;;;;;;4.90;2.83;;;-2.20;99.90;;;;;;4994642;28;20054;-85
2021/12/21 04:35:43;;;;;;;7.35;2.40;;;-2.20;99.90;;;;;;4993418;28;20026;-85
2021/12/21 04:38:32;;;;;;;4.97;2.42;;;-2.10;99.90;;;;;;4994936;28;20486;-85
2021/12/21 04:41:23;;;;;;;5.22;2.42;;;-2.20;99.90;;;;;;4981854;28;20394;-85
2021/12/21 04:43:51;;;;;;;6.60;2.33;;;-2.20;99.90;;;;;;4994928;28;20018;-85
2021/12/21 04:46:23;;;;;;;5.03;2.60;;;-2.20;99.90;;;;;;4994800;28;20049;-85
2021/12/21 04:48:49;;;;;;;6.50;3.15;;;-2.20;99.90;;;;;;4993341;28;20390;-85
2021/12/21 04:51:32;;;;;;;7.75;3.13;;;-2.20;99.90;;;;;;4994348;28;20026;-85
2021/12/21 04:53:58;;;;;;;8.65;3.55;;;-2.20;99.90;;;;;;4994643;28;20030;-85
2021/12/21 04:56:24;;;;;;;6.45;3.78;;;-2.30;99.90;;;;;;4994757;28;20041;-80
2021/12/21 04:58:50;;;;;;;9.02;3.53;;;-2.30;99.90;;;;;;4994801;28;20050;-80
2021/12/21 05:01:16;;;;;;;9.70;3.80;;;-2.30;99.90;;;;;;4994401;28;20061;-79
2021/12/21 05:03:42;;;;;;;8.85;3.50;;;-2.30;99.90;;;;;;4994462;28;20057;-80
2021/12/21 05:06:09;;;;;;;4.13;3.03;;;-2.30;99.90;;;;;;4994235;28;20030;-80
2021/12/21 05:08:38;;;;;;;12.13;3.60;;;-2.30;99.90;;;;;;4994362;28;20041;-80
2021/12/21 05:11:05;;;;;;;7.20;3.28;;;-2.30;99.90;;;;;;4994543;28;20370;-80
2021/12/21 05:13:38;;;;;;;8.10;3.60;;;-2.30;99.90;;;;;;4994502;28;20109;-80
2021/12/21 05:16:05;;;;;;;15.70;5.50;;;-2.30;99.90;;;;;;4993268;28;20467;-80
2021/12/21 05:18:32;;;;;;;9.38;5.18;;;-2.40;99.90;;;;;;4994452;28;20045;-80
2021/12/21 05:20:58;;;;;;;11.63;5.70;;;-2.40;99.90;;;;;;4992467;28;20065;-80
2021/12/21 05:23:24;;;;;;;9.48;5.15;;;-2.40;99.90;;;;;;4993794;28;20077;-80
2021/12/21 05:25:50;;;;;;;11.10;5.85;;;-2.30;99.90;;;;;;4994190;28;20058;-80
2021/12/21 05:28:16;;;;;;;10.10;5.72;;;-2.40;99.90;;;;;;4993964;28;20030;-80
2021/12/21 05:30:43;;;;;;;10.30;5.45;;;-2.40;99.90;;;;;;4993991;28;20354;-79
2021/12/21 05:33:09;;;;;;;11.40;4.85;;;-2.40;99.90;;;;;;4993949;28;20482;-80
2021/12/21 05:35:36;;;;;;;10.00;4.65;;;-2.50;99.90;;;;;;4993646;28;20902;-80
2021/12/21 05:38:05;;;;;;;8.32;4.50;;;-2.40;99.90;;;;;;4991816;28;20109;-80
2021/12/21 05:40:35;;;;;;;10.98;4.05;;;-2.50;99.90;;;;;;4993980;28;20414;-80
2021/12/21 05:43:01;;;;;;;6.03;3.55;;;-2.50;99.90;;;;;;4993862;28;20027;-79
2021/12/21 05:45:28;;;;;;;10.93;2.90;;;-2.50;99.90;;;;;;4993685;28;20058;-79
2021/12/21 05:47:54;;;;;;;4.45;2.30;;;-2.60;99.90;;;;;;4993799;28;20110;-80
2021/12/21 05:50:21;;;;;;;8.85;3.35;;;-2.60;99.90;;;;;;4993362;28;20092;-80
2021/12/21 05:52:48;;;;;;;8.23;2.50;;;-2.60;99.90;;;;;;4992265;28;20479;-79
2021/12/21 05:55:16;;;;;;;7.55;2.50;;;-2.60;99.90;;;;;;4993772;28;20045;-80
2021/12/21 05:57:42;;;;;;;4.97;2.75;;;-2.50;99.90;;;;;;4993599;28;20062;-79
2021/12/21 06:00:11;;;;;;;11.27;2.00;;;-2.60;99.90;;;;;;4993825;28;20487;-79
2021/12/21 06:02:38;;;;;;;3.33;2.28;;;-2.50;99.90;;;;;;4992267;28;20331;-80
2021/12/21 06:05:05;;;;;;;11.40;2.80;;;-2.50;99.90;;;;;;4993147;28;20026;-80
2021/12/21 06:07:32;;;;;;;4.95;1.80;;;-2.50;99.90;;;;;;4993765;28;20033;-80
2021/12/21 06:09:58;;;;;;;11.57;2.20;;;-2.50;99.90;;;;;;4992034;28;20039;-80
2021/12/21 06:23:31;;;;;;;;;;;-2.50;99.90;;;;;;4993672;28;20096;-79
2021/12/21 06:25:59;;;;;;;6.35;1.95;;;-2.50;99.90;;;;;;4993150;28;19906;-79
2021/12/21 06:28:26;;;;;;;2.22;1.83;;;-2.50;99.90;;;;;;4993377;28;20030;-80
2021/12/21 06:30:51;;;;;;;6.45;1.92;;;-2.50;99.90;;;;;;4992104;28;20414;-79
2021/12/21 06:33:19;;;;;;;1.60;1.50;;;-2.60;99.90;;;;;;4993170;28;20022;-80
2021/12/21 06:35:44;;;;;;;4.03;1.75;;;-2.60;99.90;;;;;;4992948;28;20034;-79
2021/12/21 06:38:10;;;;;;;9.32;2.35;;;-2.50;99.90;;;;;;4992400;28;20022;-80
2021/12/21 06:40:37;;;;;;;6.28;2.13;;;-2.50;99.90;;;;;;4993196;28;20038;-79
2021/12/21 06:43:03;;;;;;;4.32;1.92;;;-2.50;99.90;;;;;;4993160;28;20031;-79
2021/12/21 06:53:29;;;;;;;9.80;2.17;;;-2.50;99.90;;;;;;4997065;28;20415;-80
2021/12/21 06:55:55;;;;;;;1.80;1.63;;;-2.50;99.90;;;;;;4996823;28;20038;-79
2021/12/21 06:58:21;;;;;;;7.00;1.90;;;-2.50;99.90;;;;;;4996919;28;20062;-79
2021/12/21 07:00:49;;;;;;;2.83;2.00;;;-2.60;99.90;;;;;;4997023;28;20065;-80
2021/12/21 07:03:15;;;;;;;4.95;2.40;;;-2.50;99.90;;;;;;4995631;28;20027;-80
2021/12/21 07:05:41;;;;;;;3.85;2.60;;;-2.50;99.90;;;;;;4996519;28;20033;-80
2021/12/21 07:08:14;;;;;;;7.38;2.65;;;-2.50;99.90;;;;;;4996467;28;20034;-79
2021/12/21 07:10:41;;;;;;;4.55;2.50;;;-2.50;99.90;;;;;;4995244;28;20030;-80
2021/12/21 07:18:36;;;;;;;7.50;3.90;;;-2.40;99.90;;;;;;4996125;28;20037;-79
2021/12/21 07:21:02;;;;;;;5.07;3.03;;;-2.50;99.90;;;;;;4994831;28;20474;-79
2021/12/21 07:23:30;;;;;;;8.98;3.92;;;-2.40;99.90;;;;;;4995015;28;20057;-80
2021/12/21 07:25:57;;;;;;;5.30;3.35;;;-2.40;99.90;;;;;;4994848;28;20054;-79
2021/12/21 07:31:11;;;;;;;8.88;3.80;;;-2.40;99.90;;;;;;4985648;28;20035;-79
2021/12/21 07:33:38;;;;;;;10.70;3.67;;;-2.40;99.90;;;;;;4995752;28;20455;-79
2021/12/21 07:36:04;;;;;;;4.47;3.28;;;-2.40;99.90;;;;;;4996106;28;20065;-79
2021/12/21 07:38:32;;;;;;;9.15;4.65;;;-2.30;99.90;;;;;;4996116;28;20057;-79
2021/12/21 07:41:01;;;;;;;5.13;3.33;;;-2.30;99.90;;;;;;4994966;28;20041;-79
2021/12/21 07:43:26;;;;;;;11.05;4.93;;;-2.20;99.90;;;;;;4995950;28;20372;-79
2021/12/21 07:45:52;;;;;;;15.38;6.82;;;-2.10;99.90;;;;;;4996117;28;20110;-79
2021/12/21 07:48:18;;;;;;;13.40;6.32;;;-2.00;99.90;;;;;;4995747;28;20029;-79
2021/12/21 07:50:46;;;;;;;16.10;5.97;;;-1.90;99.90;;;;;;4995562;28;20481;-79
2021/12/21 07:53:16;;;;;;;13.00;5.78;;;-1.90;99.90;;;;;;4995815;28;20018;-79
2021/12/21 07:55:43;;;;;;;13.48;6.35;;;-1.80;99.90;;;;;;4994865;28;20026;-79
2021/12/21 07:58:09;;;;;;;15.25;6.45;;;-1.80;99.90;;;;;;4994552;28;20030;-79
2021/12/21 08:00:35;;;;;;;10.88;6.68;;;-1.70;99.90;;;;;;4993632;28;20861;-79
2021/12/21 08:03:02;;;;;;;13.35;7.40;;;-1.70;99.90;;;;;;4994269;28;20117;-79
2021/12/21 08:05:32;;;;;;;20.25;7.97;;;-1.60;99.90;;;;;;4995385;28;20022;-79
2021/12/21 08:08:08;;;;;;;21.52;7.57;;;-1.60;99.90;;;;;;4994076;28;20470;-79
2021/12/21 08:10:43;;;;;;;17.15;6.80;;;-1.50;99.90;;;;;;4994287;28;20421;-79
2021/12/21 08:13:09;;;;;;;;;;;-1.50;99.90;;;;;;4994593;28;20025;-79
2021/12/21 08:15:35;;;;;;;23.13;9.38;;;-1.40;99.90;;;;;;4995574;28;19910;-79
2021/12/21 08:18:01;;;;;;;15.63;8.13;;;-1.40;99.90;;;;;;4995275;28;20459;-79
2021/12/21 08:20:28;;;;;;;22.52;11.27;;;-1.40;99.90;;;;;;4995203;28;20054;-79
2021/12/21 08:22:56;;;;;;;24.90;10.70;;;-1.30;99.90;;;;;;4994836;28;20065;-79
2021/12/21 08:25:24;;;;;;;29.58;11.73;;;-1.30;99.90;;;;;;4995325;28;20488;-80
2021/12/21 08:27:58;;;;;;;44.60;18.95;;;-1.30;99.90;;;;;;4995188;28;20033;-81
2021/12/21 08:30:24;;;;;;;42.35;19.30;;;-1.30;99.90;;;;;;4994023;28;20397;-80
2021/12/21 08:32:50;;;;;;;46.13;19.40;;;-1.20;99.90;;;;;;4995060;28;20114;-79
2021/12/21 08:35:15;;;;;;;44.40;19.08;;;-1.20;99.90;;;;;;4994881;28;20058;-80
2021/12/21 08:37:48;;;;;;;55.42;25.33;;;-1.20;99.90;;;;;;4995209;28;20026;-79
2021/12/21 08:40:14;;;;;;;59.92;26.25;;;-1.10;99.90;;;;;;4993766;28;20022;-80
2021/12/21 08:42:40;;;;;;;63.50;26.17;;;-1.10;99.90;;;;;;4994018;28;20072;-79
2021/12/21 08:45:07;;;;;;;63.58;29.77;;;-1.00;99.90;;;;;;4993598;28;20490;-79
2021/12/21 08:47:36;;;;;;;80.60;32.55;;;-1.00;99.90;;;;;;4994939;28;20091;-79
2021/12/21 08:50:04;;;;;;;76.03;32.10;;;-0.90;99.90;;;;;;4994523;28;20034;-80
2021/12/21 08:52:34;;;;;;;75.93;33.17;;;-0.90;99.90;;;;;;4994683;28;20022;-80
2021/12/21 08:55:00;;;;;;;77.65;34.92;;;-0.90;99.90;;;;;;4994586;28;20023;-80
2021/12/21 08:57:25;;;;;;;93.80;38.00;;;-0.90;99.90;;;;;;4993411;28;20025;-80
2021/12/21 08:59:51;;;;;;;92.45;36.60;;;-0.80;99.90;;;;;;4994678;28;20037;-80
2021/12/21 09:02:17;;;;;;;86.82;38.38;;;-0.80;99.90;;;;;;4994552;28;20030;-80
2021/12/21 09:04:42;;;;;;;93.15;37.80;;;-0.80;99.90;;;;;;4994277;28;20061;-80
2021/12/21 09:07:09;;;;;;;89.32;38.08;;;-0.70;99.90;;;;;;4994453;28;20038;-80
2021/12/21 09:09:35;;;;;;;80.43;35.10;;;-0.70;99.90;;;;;;4994526;28;20038;-80
2021/12/21 09:12:03;;;;;;;96.25;38.88;;;-0.70;99.90;;;;;;4994395;28;20371;-80
2021/12/21 09:14:32;;;;;;;74.38;33.63;;;-0.70;99.90;;;;;;4994278;28;20101;-80
2021/12/21 09:16:59;;;;;;;74.75;34.58;;;-0.60;99.90;;;;;;4994222;28;20475;-80
2021/12/21 09:19:25;;;;;;;83.13;36.90;;;-0.60;99.90;;;;;;4993966;28;20026;-80
2021/12/21 09:21:53;;;;;;;73.25;34.30;;;-0.60;99.90;;;;;;4994300;28;20061;-85
2021/12/21 09:24:19;;;;;;;77.80;35.83;;;-0.50;99.90;;;;;;4993829;28;20059;-84
2021/12/21 09:26:44;;;;;;;83.35;34.92;;;-0.50;99.90;;;;;;4992869;28;20038;-84
2021/12/21 09:29:10;;;;;;;91.90;37.55;;;-0.50;99.90;;;;;;4993971;28;20026;-84
2021/12/21 09:31:37;;;;;;;75.05;34.03;;;-0.50;99.90;;;;;;4993971;28;20038;-84
2021/12/21 09:34:03;;;;;;;70.28;32.38;;;-0.50;99.90;;;;;;4993679;28;20120;-84
2021/12/21 09:36:38;;;;;;;84.05;33.90;;;-0.50;99.90;;;;;;4992804;28;20356;-84
2021/12/21 09:39:03;;;;;;;86.47;34.75;;;-0.50;99.90;;;;;;4993914;28;20097;-84
2021/12/21 09:41:29;;;;;;;70.07;32.28;;;-0.40;99.90;;;;;;4992556;28;20610;-84
2021/12/21 09:43:55;;;;;;;60.35;29.60;;;-0.30;99.90;;;;;;4993805;28;20049;-84
2021/12/21 09:46:21;;;;;;;64.60;30.83;;;-0.30;99.90;;;;;;4993767;28;20582;-84
2021/12/21 09:48:47;;;;;;;73.18;30.33;;;-0.20;99.90;;;;;;4993438;28;20035;-84
2021/12/21 09:51:15;;;;;;;52.30;25.42;;;-0.20;99.90;;;;;;4992482;28;20105;-85
2021/12/21 09:53:42;;;;;;;48.78;26.33;;;-0.20;99.90;;;;;;4993845;28;20487;-84
2021/12/21 09:56:08;;;;;;;57.40;26.02;;;-0.10;99.90;;;;;;4993746;28;20054;-84
2021/12/21 09:58:34;;;;;;;51.35;25.15;;;-0.10;99.90;;;;;;4993603;28;20470;-85
2021/12/21 10:01:01;;;;;;;51.78;25.33;;;0.00;99.90;;;;;;4989762;28;20030;-84
2021/12/21 10:03:26;;;;;;;48.97;23.98;;;0.00;99.90;;;;;;4991913;28;20030;-85
2021/12/21 10:06:03;;;;;;;43.50;23.15;;;0.00;99.90;;;;;;4993568;28;20034;-84
2021/12/21 10:08:31;;;;;;;41.03;21.23;;;0.10;99.90;;;;;;4993119;28;20026;-84
2021/12/21 10:11:21;;;;;;;46.75;22.92;;;0.10;99.90;;;;;;4993316;28;20442;-84
2021/12/21 10:13:48;;;;;;;43.60;22.55;;;0.10;99.90;;;;;;4992255;28;20019;-84
2021/12/21 10:16:24;;;;;;;42.22;22.02;;;0.20;99.90;;;;;;4992152;28;20032;-84
2021/12/21 10:18:50;;;;;;;52.53;24.58;;;0.20;99.90;;;;;;4991824;28;20029;-84
2021/12/21 10:21:17;;;;;;;44.05;21.23;;;0.20;99.90;;;;;;4993185;28;20039;-85
2021/12/21 10:23:54;;;;;;;58.10;23.70;;;0.30;99.90;;;;;;4992661;28;20109;-84
2021/12/21 10:26:23;;;;;;;49.03;21.73;;;0.30;99.90;;;;;;4993213;28;20026;-84
2021/12/21 10:28:59;;;;;;;52.67;22.63;;;0.20;99.90;;;;;;4992009;28;20498;-84
2021/12/21 10:31:28;;;;;;;56.17;23.02;;;0.30;99.90;;;;;;4993139;28;20026;-85
2021/12/21 10:33:57;;;;;;;35.63;19.48;;;0.30;99.90;;;;;;4992953;28;20414;-84
2021/12/21 10:36:26;;;;;;;47.33;21.02;;;0.30;99.90;;;;;;4992009;28;20465;-85
2021/12/21 10:38:57;;;;;;;34.95;18.23;;;0.30;99.90;;;;;;4993191;28;20426;-84
2021/12/21 10:42:11;;;;;;;41.67;19.88;;;0.30;99.90;;;;;;4991844;28;20524;-84
2021/12/21 10:44:45;;;;;;;42.20;19.85;;;0.40;99.90;;;;;;4981294;28;20030;-84
2021/12/21 10:47:12;;;;;;;38.53;20.55;;;0.40;99.90;;;;;;4993090;28;20030;-84
2021/12/21 10:49:39;;;;;;;43.95;19.38;;;0.40;99.90;;;;;;4991346;28;20026;-84
2021/12/21 10:52:13;;;;;;;43.30;21.50;;;0.50;99.90;;;;;;4991739;28;20418;-84
2021/12/21 10:54:47;;;;;;;45.13;20.73;;;0.50;99.90;;;;;;4992967;28;20023;-84
2021/12/21 10:57:21;;;;;;;61.90;24.65;;;0.50;99.90;;;;;;4992963;28;20383;-84
2021/12/21 10:59:51;;;;;;;43.90;20.23;;;0.60;99.90;;;;;;4991735;28;20030;-86
2021/12/21 11:02:52;;;;;;;43.03;20.27;;;0.60;99.90;;;;;;4992687;28;20029;-84
2021/12/21 11:05:30;;;;;;;51.70;22.42;;;0.60;99.90;;;;;;4989733;28;20367;-84
2021/12/21 11:08:03;;;;;;;42.90;21.67;;;0.60;99.90;;;;;;4991577;28;20154;-84
2021/12/21 11:10:37;;;;;;;39.63;21.65;;;0.60;99.90;;;;;;4991440;28;20117;-84
2021/12/21 11:13:10;;;;;;;37.95;18.33;;;0.60;99.90;;;;;;4991362;28;20027;-84
2021/12/21 11:15:41;;;;;;;50.50;21.33;;;0.60;99.90;;;;;;4980075;28;20027;-84
2021/12/21 11:18:18;;;;;;;49.15;19.52;;;0.60;99.90;;;;;;4971591;28;20506;-83
2021/12/21 11:20:48;;;;;;;47.40;20.23;;;0.60;99.90;;;;;;4989807;28;20058;-84
2021/12/21 11:23:16;;;;;;;37.08;19.75;;;0.70;99.90;;;;;;4990933;28;20125;-84
2021/12/21 11:25:43;;;;;;;52.40;22.13;;;0.70;99.90;;;;;;4992521;28;20026;-84
2021/12/21 11:28:14;;;;;;;44.40;22.23;;;0.70;99.90;;;;;;4992695;28;20050;-84
2021/12/21 11:30:42;;;;;;;44.58;21.13;;;0.70;99.90;;;;;;4992501;28;20080;-83
2021/12/21 11:33:09;;;;;;;52.33;23.08;;;0.70;99.90;;;;;;4991034;28;20026;-83
2021/12/21 11:38:33;;;;;;;55.85;24.38;;;0.70;99.90;;;;;;4996500;28;20041;-84
2021/12/21 11:41:05;;;;;;;52.00;23.88;;;0.60;99.90;;;;;;4995966;28;20041;-84
2021/12/21 11:43:45;;;;;;;51.30;26.45;;;0.60;99.90;;;;;;4996339;28;20026;-84
2021/12/21 11:46:14;;;;;;;55.58;26.05;;;0.60;99.90;;;;;;4995996;28;20038;-84
2021/12/21 11:49:16;;;;;;;69.88;26.65;;;0.60;99.90;;;;;;4995459;28;20598;-84
2021/12/21 11:51:42;;;;;;;62.42;27.02;;;0.60;99.90;;;;;;4994651;28;20022;-84
2021/12/21 11:54:17;;;;;;;52.70;25.52;;;0.60;99.90;;;;;;4995782;28;20050;-84
2021/12/21 11:56:43;;;;;;;51.35;25.58;;;0.60;99.90;;;;;;4995894;28;20083;-84
2021/12/21 11:59:08;;;;;;;48.00;23.73;;;0.60;99.90;;;;;;4994461;28;20038;-84
2021/12/21 12:01:34;;;;;;;68.47;28.77;;;0.60;99.90;;;;;;4995600;28;20034;-84
2021/12/21 12:04:12;;;;;;;57.08;25.55;;;0.60;99.90;;;;;;4994001;28;20031;-84
2021/12/21 12:06:49;;;;;;;45.20;21.73;;;0.70;99.90;;;;;;4995396;28;20082;-84
2021/12/21 12:09:26;;;;;;;54.47;24.77;;;0.70;99.90;;;;;;4995424;28;20034;-84
2021/12/21 12:12:03;;;;;;;51.03;24.40;;;0.70;99.90;;;;;;4995538;28;20033;-84
2021/12/21 12:14:30;;;;;;;47.20;21.80;;;0.60;99.90;;;;;;4995483;28;20030;-84
2021/12/21 12:16:58;;;;;;;63.03;26.02;;;0.60;99.90;;;;;;4995458;28;20034;-84
2021/12/21 12:19:35;;;;;;;52.10;22.27;;;0.60;99.90;;;;;;4995231;28;20467;-85
2021/12/21 12:22:09;;;;;;;49.33;19.13;;;0.60;99.90;;;;;;4994045;28;20084;-84
2021/12/21 12:24:43;;;;;;;39.75;18.80;;;0.60;99.90;;;;;;4983978;28;20414;-84
2021/12/21 12:27:15;;;;;;;35.88;17.70;;;0.60;99.90;;;;;;4975646;28;20431;-84
2021/12/21 12:29:52;;;;;;;31.50;17.58;;;0.60;99.90;;;;;;4992440;28;20054;-84
2021/12/21 12:32:49;;;;;;;42.95;18.35;;;0.60;99.90;;;;;;4992116;28;20121;-84
2021/12/21 12:35:22;;;;;;;32.53;15.45;;;0.70;99.90;;;;;;4989940;28;20077;-84
2021/12/21 12:38:02;;;;;;;31.23;12.80;;;0.70;99.90;;;;;;4993797;28;20038;-84
2021/12/21 12:40:57;;;;;;;32.53;14.05;;;0.70;99.90;;;;;;4995022;28;20026;-84
2021/12/21 12:43:28;;;;;;;37.92;14.00;;;0.70;99.90;;;;;;4995248;28;20106;-84
2021/12/21 12:46:02;;;;;;;29.33;13.65;;;0.70;99.90;;;;;;4994998;28;20078;-79
2021/12/21 12:48:38;;;;;;;24.00;12.10;;;0.80;99.90;;;;;;4994067;28;20026;-79
2021/12/21 12:51:07;;;;;;;19.80;10.63;;;0.80;99.90;;;;;;4994930;28;20033;-79
2021/12/21 12:53:44;;;;;;;17.88;10.38;;;0.70;99.90;;;;;;4994927;28;20049;-79
2021/12/21 12:56:14;;;;;;;31.40;13.10;;;0.70;99.90;;;;;;4994816;28;20049;-80
2021/12/21 12:58:58;;;;;;;28.77;14.25;;;0.80;99.90;;;;;;4994704;28;20026;-80
2021/12/21 13:01:27;;;;;;;28.55;15.40;;;0.80;99.90;;;;;;4994658;28;20041;-80
2021/12/21 13:04:01;;;;;;;27.17;12.90;;;0.80;99.90;;;;;;4993202;28;20073;-80
2021/12/21 13:06:34;;;;;;;28.95;12.32;;;0.80;99.90;;;;;;4994365;28;20027;-80
2021/12/21 13:09:05;;;;;;;29.30;12.65;;;0.80;99.90;;;;;;4994348;28;20026;-79
2021/12/21 13:11:31;;;;;;;27.30;13.18;;;0.80;99.90;;;;;;4994526;28;20428;-80
2021/12/21 13:13:57;;;;;;;36.67;14.90;;;0.80;99.90;;;;;;4994599;28;20026;-80
2021/12/21 13:16:26;;;;;;;30.88;15.30;;;0.80;99.90;;;;;;4994207;28;20058;-80
2021/12/21 13:18:56;;;;;;;29.05;13.75;;;0.80;99.90;;;;;;4992776;28;20374;-79
2021/12/21 13:21:28;;;;;;;29.83;14.90;;;0.80;99.90;;;;;;4994363;28;20029;-79
2021/12/21 13:24:12;;;;;;;33.85;13.77;;;0.80;99.90;;;;;;4994110;28;20046;-80
2021/12/21 13:26:42;;;;;;;30.88;15.40;;;0.80;99.90;;;;;;4993918;28;20040;-80
2021/12/21 13:29:10;;;;;;;32.90;15.00;;;0.80;99.90;;;;;;4994090;28;20033;-80
2021/12/21 13:31:37;;;;;;;35.65;15.48;;;0.80;99.90;;;;;;4993926;28;20030;-79
2021/12/21 13:34:04;;;;;;;38.05;16.20;;;0.80;99.90;;;;;;4993916;28;20455;-79
2021/12/21 13:36:45;;;;;;;31.95;16.88;;;0.90;99.90;;;;;;4992755;28;20054;-79
2021/12/21 13:39:28;;;;;;;36.13;16.70;;;0.90;99.90;;;;;;4994006;28;20474;-79
2021/12/21 13:41:57;;;;;;;33.95;15.70;;;0.90;99.90;;;;;;4993906;28;20486;-80
2021/12/21 13:44:30;;;;;;;35.17;14.82;;;0.90;99.90;;;;;;4992603;28;20030;-79
2021/12/21 13:47:02;;;;;;;41.47;16.45;;;0.90;99.90;;;;;;4993686;28;20039;-79
2021/12/21 13:49:28;;;;;;;28.83;14.77;;;0.90;99.90;;;;;;4992284;28;20026;-80
2021/12/21 13:51:57;;;;;;;27.30;12.88;;;0.90;99.90;;;;;;4993755;28;20577;-80
2021/12/21 13:54:24;;;;;;;26.05;13.98;;;0.80;99.90;;;;;;4992676;28;20046;-80
2021/12/21 13:56:51;;;;;;;28.25;12.30;;;0.80;99.90;;;;;;4993608;28;20474;-80
2021/12/21 13:59:19;;;;;;;22.40;12.55;;;0.70;99.90;;;;;;4992848;28;20511;-80
2021/12/21 14:01:48;;;;;;;23.48;12.43;;;0.70;99.90;;;;;;4986214;28;20031;-80
2021/12/21 14:04:16;;;;;;;31.58;15.20;;;0.70;99.90;;;;;;4992229;28;20033;-80
2021/12/21 14:06:44;;;;;;;28.27;13.45;;;0.60;99.90;;;;;;4992437;28;20038;-80
2021/12/21 14:09:12;;;;;;;34.50;15.93;;;0.60;99.90;;;;;;4991990;28;20034;-84
2021/12/21 14:11:41;;;;;;;33.75;14.20;;;0.50;99.90;;;;;;4992996;28;20022;-84
2021/12/21 14:14:12;;;;;;;34.17;15.57;;;0.50;99.90;;;;;;4993432;28;20014;-84